createdAt,value
2022-08-31T00:02:40.142Z,22.20
2022-08-31T00:05:07.317Z,19.60
2022-08-31T00:07:35.165Z,19.40
2022-08-31T00:10:04.116Z,19.30
2022-08-31T00:12:30.761Z,19.10
2022-08-31T00:14:57.588Z,19.10
2022-08-31T00:17:24.333Z,20.10
2022-08-31T00:19:50.993Z,19.00
2022-08-31T00:22:17.621Z,21.30
2022-08-31T00:24:44.338Z,18.50
2022-08-31T00:27:11.157Z,18.20
2022-08-31T00:29:37.912Z,19.60
2022-08-31T00:32:04.762Z,18.70
2022-08-31T00:34:31.529Z,17.70
2022-08-31T00:36:59.901Z,17.60
2022-08-31T00:39:26.645Z,17.60
2022-08-31T00:41:53.378Z,17.40
2022-08-31T00:44:21.349Z,17.30
2022-08-31T00:46:48.087Z,17.80
2022-08-31T00:49:17.797Z,16.90
2022-08-31T00:51:50.285Z,16.70
2022-08-31T00:54:18.653Z,16.70
2022-08-31T00:56:45.829Z,16.60
2022-08-31T00:59:13.258Z,16.80
2022-08-31T01:01:39.951Z,16.60
2022-08-31T01:04:07.052Z,16.50
2022-08-31T01:06:34.168Z,16.50
2022-08-31T01:09:01.657Z,16.50
2022-08-31T01:11:28.431Z,17.70
2022-08-31T01:13:55.585Z,16.50
2022-08-31T01:16:42.546Z,16.40
2022-08-31T01:19:38.607Z,16.50
2022-08-31T01:22:05.230Z,16.50
2022-08-31T01:24:32.796Z,17.50
2022-08-31T01:27:03.700Z,16.60
2022-08-31T01:29:31.087Z,16.70
2022-08-31T01:31:57.924Z,16.50
2022-08-31T01:34:24.668Z,17.70
2022-08-31T01:36:51.534Z,16.60
2022-08-31T01:39:19.221Z,16.50
2022-08-31T01:41:45.945Z,16.70
2022-08-31T01:44:17.127Z,16.40
2022-08-31T01:46:44.592Z,16.50
2022-08-31T01:49:11.800Z,16.50
2022-08-31T01:51:38.531Z,16.60
2022-08-31T01:54:05.362Z,16.60
2022-08-31T01:56:34.570Z,16.60
2022-08-31T01:59:03.930Z,17.10
2022-08-31T02:01:35.886Z,16.40
2022-08-31T02:04:04.106Z,16.40
2022-08-31T02:06:30.857Z,16.30
2022-08-31T02:08:57.776Z,16.20
2022-08-31T02:11:24.626Z,16.10
2022-08-31T02:13:51.280Z,17.30
2022-08-31T02:16:18.273Z,15.90
2022-08-31T02:18:45.057Z,15.80
2022-08-31T02:21:13.758Z,15.70
2022-08-31T02:23:41.188Z,15.70
2022-08-31T02:26:08.347Z,15.70
2022-08-31T02:28:35.608Z,15.60
2022-08-31T02:31:02.384Z,16.30
2022-08-31T02:33:29.170Z,15.60
2022-08-31T02:35:58.222Z,15.60
2022-08-31T02:38:25.199Z,16.60
2022-08-31T02:40:53.799Z,15.60
2022-08-31T02:43:24.820Z,15.50
2022-08-31T02:45:53.687Z,15.50
2022-08-31T02:48:20.522Z,16.10
2022-08-31T02:50:48.135Z,15.50
2022-08-31T02:53:16.589Z,15.60
2022-08-31T02:55:43.665Z,15.60
2022-08-31T02:58:11.285Z,15.60
2022-08-31T03:00:38.477Z,15.60
2022-08-31T03:03:05.727Z,15.70
2022-08-31T03:05:32.695Z,15.80
2022-08-31T03:07:59.349Z,15.80
2022-08-31T03:10:26.583Z,15.80
2022-08-31T03:12:53.624Z,15.80
2022-08-31T03:15:21.787Z,15.80
2022-08-31T03:17:48.845Z,15.80
2022-08-31T03:20:16.514Z,15.70
2022-08-31T03:22:45.575Z,15.70
2022-08-31T03:25:12.965Z,15.80
2022-08-31T03:27:39.808Z,15.80
2022-08-31T03:30:07.664Z,17.40
2022-08-31T03:32:34.421Z,15.80
2022-08-31T03:35:01.678Z,16.60
2022-08-31T03:37:28.508Z,15.90
2022-08-31T03:39:55.263Z,16.00
2022-08-31T03:42:21.915Z,16.00
2022-08-31T03:44:48.714Z,15.90
2022-08-31T03:47:16.841Z,16.00
2022-08-31T03:49:44.133Z,15.90
2022-08-31T03:52:10.882Z,15.90
2022-08-31T03:54:37.645Z,16.00
2022-08-31T03:57:04.901Z,16.40
2022-08-31T03:59:31.844Z,16.10
2022-08-31T04:01:58.723Z,16.10
2022-08-31T04:04:25.527Z,15.90
2022-08-31T04:06:52.264Z,15.90
2022-08-31T04:09:19.114Z,15.80
2022-08-31T04:11:45.942Z,15.80
2022-08-31T04:14:14.955Z,15.70
2022-08-31T04:16:43.995Z,15.70
2022-08-31T04:19:11.566Z,15.80
2022-08-31T04:21:38.630Z,16.10
2022-08-31T04:24:07.970Z,15.80
2022-08-31T04:26:36.322Z,15.70
2022-08-31T04:29:04.795Z,15.70
2022-08-31T04:31:31.707Z,16.00
2022-08-31T04:33:58.482Z,15.80
2022-08-31T04:36:26.163Z,17.30
2022-08-31T04:38:53.842Z,15.90
2022-08-31T04:41:21.992Z,15.90
2022-08-31T04:43:50.209Z,15.90
2022-08-31T04:46:17.723Z,16.00
2022-08-31T04:48:44.798Z,15.90
2022-08-31T04:51:12.736Z,16.50
2022-08-31T04:53:39.671Z,15.80
2022-08-31T04:56:14.567Z,15.90
2022-08-31T04:58:45.565Z,15.80
2022-08-31T05:01:13.475Z,15.90
2022-08-31T05:03:40.877Z,15.90
2022-08-31T05:06:12.243Z,16.00
2022-08-31T05:08:39.089Z,16.10
2022-08-31T05:11:12.685Z,16.00
2022-08-31T05:13:39.435Z,15.80
2022-08-31T05:16:07.016Z,17.30
2022-08-31T05:18:33.700Z,15.70
2022-08-31T05:21:13.868Z,16.80
2022-08-31T05:23:40.744Z,15.80
2022-08-31T05:26:08.539Z,15.90
2022-08-31T05:28:36.253Z,15.90
2022-08-31T05:31:03.438Z,15.90
2022-08-31T05:33:30.163Z,17.00
2022-08-31T05:35:57.196Z,17.30
2022-08-31T05:38:23.925Z,15.90
2022-08-31T05:40:54.648Z,15.90
2022-08-31T05:43:22.189Z,15.90
2022-08-31T05:45:49.024Z,15.90
2022-08-31T05:48:15.787Z,15.90
2022-08-31T05:50:42.834Z,15.90
2022-08-31T05:53:09.891Z,16.00
2022-08-31T05:55:36.639Z,15.90
2022-08-31T05:58:04.209Z,15.90
2022-08-31T06:00:32.187Z,15.90
2022-08-31T06:02:59.015Z,15.90
2022-08-31T06:05:25.709Z,15.90
2022-08-31T06:07:52.429Z,15.80
2022-08-31T06:10:19.218Z,16.40
2022-08-31T06:12:47.339Z,15.70
2022-08-31T06:15:15.714Z,15.60
2022-08-31T06:17:42.582Z,15.60
2022-08-31T06:20:11.266Z,15.50
2022-08-31T06:22:46.826Z,15.40
2022-08-31T06:25:19.264Z,16.60
2022-08-31T06:27:49.253Z,16.70
2022-08-31T06:30:19.381Z,15.40
2022-08-31T06:32:46.668Z,15.10
2022-08-31T06:35:13.861Z,15.10
2022-08-31T06:37:40.610Z,15.10
2022-08-31T06:40:07.632Z,15.00
2022-08-31T06:42:34.300Z,15.00
2022-08-31T06:45:01.906Z,14.90
2022-08-31T06:47:28.606Z,14.90
2022-08-31T06:49:57.311Z,15.00
2022-08-31T06:52:24.231Z,15.00
2022-08-31T06:54:51.241Z,15.00
2022-08-31T06:57:18.132Z,15.00
2022-08-31T06:59:44.968Z,15.40
2022-08-31T07:02:11.861Z,14.90
2022-08-31T07:04:39.273Z,14.90
2022-08-31T07:07:07.451Z,14.90
2022-08-31T07:09:34.371Z,15.60
2022-08-31T07:12:01.140Z,15.10
2022-08-31T07:14:27.918Z,15.00
2022-08-31T07:16:56.481Z,15.10
2022-08-31T07:19:23.594Z,15.10
2022-08-31T07:21:54.808Z,15.90
2022-08-31T07:24:24.335Z,15.10
2022-08-31T07:26:53.281Z,15.50
2022-08-31T07:29:21.219Z,15.20
2022-08-31T07:31:48.518Z,16.10
2022-08-31T07:34:19.288Z,15.30
2022-08-31T07:37:05.195Z,15.30
2022-08-31T07:39:50.577Z,15.40
2022-08-31T07:42:19.059Z,15.40
2022-08-31T07:44:53.346Z,15.40
2022-08-31T07:47:22.684Z,15.40
2022-08-31T07:49:53.587Z,15.70
2022-08-31T07:52:21.925Z,15.50
2022-08-31T07:54:49.032Z,15.50
2022-08-31T07:57:16.193Z,16.80
2022-08-31T07:59:42.942Z,15.50
2022-08-31T08:02:12.955Z,15.50
2022-08-31T08:04:43.213Z,15.50
2022-08-31T08:07:11.228Z,15.50
2022-08-31T08:09:39.032Z,15.50
2022-08-31T08:12:08.826Z,16.00
2022-08-31T08:14:37.107Z,15.50
2022-08-31T08:17:04.842Z,15.60
2022-08-31T08:19:33.755Z,15.60
2022-08-31T08:22:02.237Z,15.70
2022-08-31T08:24:29.628Z,15.80
2022-08-31T08:26:56.459Z,15.80
2022-08-31T08:29:26.924Z,16.10
2022-08-31T08:31:54.519Z,15.80
2022-08-31T08:34:27.061Z,15.90
2022-08-31T08:36:59.630Z,16.00
2022-08-31T08:39:27.326Z,17.60
2022-08-31T08:41:55.904Z,16.60
2022-08-31T08:44:24.114Z,16.40
2022-08-31T08:46:59.261Z,17.00
2022-08-31T08:49:28.945Z,16.40
2022-08-31T08:52:03.179Z,16.50
2022-08-31T08:54:31.720Z,18.00
2022-08-31T08:56:59.659Z,18.90
2022-08-31T08:59:28.873Z,19.50
2022-08-31T09:02:01.937Z,17.10
2022-08-31T09:04:39.883Z,17.60
2022-08-31T09:07:07.173Z,17.80
2022-08-31T09:09:38.691Z,16.90
2022-08-31T09:12:15.210Z,18.90
2022-08-31T09:15:00.742Z,17.00
2022-08-31T09:17:34.475Z,17.10
2022-08-31T09:20:05.702Z,19.60
2022-08-31T09:22:47.025Z,18.40
2022-08-31T09:25:19.836Z,17.20
2022-08-31T09:27:57.553Z,17.60
2022-08-31T09:30:46.397Z,17.30
2022-08-31T09:33:24.497Z,15.80
2022-08-31T09:35:56.646Z,17.30
2022-08-31T09:38:29.104Z,17.30
2022-08-31T09:40:55.896Z,17.30
2022-08-31T09:43:25.313Z,18.40
2022-08-31T09:45:52.157Z,17.20
2022-08-31T09:48:39.844Z,19.10
2022-08-31T09:51:06.643Z,18.60
2022-08-31T09:53:58.703Z,18.50
2022-08-31T09:56:27.699Z,18.60
2022-08-31T09:59:02.642Z,18.50
2022-08-31T10:01:34.062Z,16.90
2022-08-31T10:04:18.106Z,17.50
2022-08-31T10:06:50.842Z,16.90
2022-08-31T10:09:20.593Z,16.90
2022-08-31T10:11:48.762Z,18.10
2022-08-31T10:14:24.292Z,16.90
2022-08-31T10:16:53.754Z,16.80
2022-08-31T10:19:33.380Z,18.70
2022-08-31T10:22:05.155Z,18.10
2022-08-31T10:24:38.253Z,16.60
2022-08-31T10:27:08.356Z,18.20
2022-08-31T10:29:41.564Z,16.50
2022-08-31T10:32:18.872Z,16.40
2022-08-31T10:35:06.088Z,17.70
2022-08-31T10:37:36.857Z,16.70
2022-08-31T10:40:07.968Z,17.90
2022-08-31T10:42:37.679Z,18.10
2022-08-31T10:45:09.287Z,18.40
2022-08-31T10:47:41.624Z,16.40
2022-08-31T10:50:09.367Z,16.50
2022-08-31T10:53:02.914Z,16.30
2022-08-31T10:55:42.967Z,16.30
2022-08-31T10:58:23.643Z,16.30
2022-08-31T11:00:57.402Z,16.30
2022-08-31T11:03:43.046Z,16.40
2022-08-31T11:06:09.672Z,16.30
2022-08-31T11:08:49.784Z,16.40
2022-08-31T11:11:19.865Z,16.40
2022-08-31T11:14:01.736Z,18.70
2022-08-31T11:16:47.244Z,16.50
2022-08-31T11:19:38.200Z,16.60
2022-08-31T11:22:29.598Z,16.70
2022-08-31T11:25:15.175Z,16.90
2022-08-31T11:27:44.884Z,17.00
2022-08-31T11:30:24.512Z,17.10
2022-08-31T11:32:52.987Z,18.50
2022-08-31T11:35:39.215Z,18.50
2022-08-31T11:38:30.158Z,17.30
2022-08-31T11:40:57.626Z,17.60
2022-08-31T11:43:33.482Z,18.10
2022-08-31T11:46:32.448Z,17.80
2022-08-31T11:49:00.148Z,17.90
2022-08-31T11:51:38.623Z,18.20
2022-08-31T11:54:26.631Z,18.20
2022-08-31T11:56:56.693Z,18.40
2022-08-31T11:59:26.186Z,18.40
2022-08-31T12:01:55.635Z,20.40
2022-08-31T12:04:51.162Z,20.00
2022-08-31T12:07:24.856Z,18.40
2022-08-31T12:10:00.577Z,18.50
2022-08-31T12:12:46.228Z,18.60
2022-08-31T12:15:22.100Z,18.60
2022-08-31T12:18:08.203Z,18.60
2022-08-31T12:21:12.479Z,18.50
2022-08-31T12:23:58.081Z,18.50
2022-08-31T12:26:41.787Z,18.50
2022-08-31T12:29:31.510Z,18.50
2022-08-31T12:32:11.268Z,18.70
2022-08-31T12:34:56.331Z,18.80
2022-08-31T12:37:24.181Z,19.00
2022-08-31T12:40:05.501Z,19.00
2022-08-31T12:42:34.153Z,20.70
2022-08-31T12:45:02.235Z,19.40
2022-08-31T12:47:44.330Z,19.20
2022-08-31T12:50:20.336Z,19.20
2022-08-31T12:53:06.728Z,19.10
2022-08-31T12:55:37.612Z,19.10
2022-08-31T12:58:21.853Z,19.60
2022-08-31T13:00:48.513Z,19.10
2022-08-31T13:03:25.053Z,19.20
2022-08-31T13:06:07.957Z,19.20
2022-08-31T13:08:36.447Z,19.30
2022-08-31T13:11:13.251Z,20.40
2022-08-31T13:13:40.205Z,19.50
2022-08-31T13:16:08.125Z,19.70
2022-08-31T13:18:35.335Z,19.90
2022-08-31T13:21:06.019Z,21.20
2022-08-31T13:23:40.918Z,21.10
2022-08-31T13:26:19.941Z,21.20
2022-08-31T13:28:52.680Z,20.20
2022-08-31T13:31:24.972Z,20.20
2022-08-31T13:33:57.017Z,20.30
2022-08-31T13:36:32.767Z,20.20
2022-08-31T13:39:02.957Z,20.30
2022-08-31T13:41:37.839Z,21.50
2022-08-31T13:44:08.971Z,20.30
2022-08-31T13:46:43.374Z,21.90
2022-08-31T13:49:22.268Z,22.20
2022-08-31T13:51:48.911Z,19.90
2022-08-31T13:54:25.839Z,20.40
2022-08-31T13:56:55.492Z,19.90
2022-08-31T13:59:25.159Z,19.70
2022-08-31T14:01:51.867Z,20.30
2022-08-31T14:04:44.130Z,19.50
2022-08-31T14:07:21.877Z,19.40
2022-08-31T14:09:50.263Z,19.40
2022-08-31T14:12:34.654Z,19.40
2022-08-31T14:15:10.667Z,19.40
2022-08-31T14:21:19.069Z,19.30
2022-08-31T14:23:36.653Z,20.50
2022-08-31T14:26:07.674Z,19.80
2022-08-31T14:28:40.604Z,19.50
2022-08-31T14:31:21.572Z,21.70
2022-08-31T14:33:55.970Z,21.50
2022-08-31T14:36:24.548Z,20.70
2022-08-31T14:38:54.190Z,19.60
2022-08-31T14:41:29.750Z,20.20
2022-08-31T14:43:58.568Z,19.70
2022-08-31T14:46:28.352Z,19.90
2022-08-31T14:48:56.440Z,19.80
2022-08-31T14:51:24.060Z,19.80
2022-08-31T14:53:56.930Z,20.10
2022-08-31T14:56:30.588Z,21.30
2022-08-31T14:58:58.175Z,20.00
2022-08-31T15:01:27.481Z,21.00
2022-08-31T15:03:55.259Z,20.10
2022-08-31T15:06:23.026Z,20.10
2022-08-31T15:08:50.683Z,20.20
2022-08-31T15:11:17.417Z,20.30
2022-08-31T15:13:44.220Z,20.30
2022-08-31T15:16:13.350Z,20.30
2022-08-31T15:18:42.424Z,20.70
2022-08-31T15:21:09.989Z,20.40
2022-08-31T15:23:41.886Z,20.30
2022-08-31T15:26:10.452Z,20.30
2022-08-31T15:28:40.869Z,20.30
2022-08-31T15:31:11.370Z,21.80
2022-08-31T15:33:39.878Z,21.30
2022-08-31T15:36:09.208Z,20.60
2022-08-31T15:38:37.237Z,20.30
2022-08-31T15:41:05.011Z,20.50
2022-08-31T15:43:32.148Z,22.00
2022-08-31T15:45:58.987Z,22.60
2022-08-31T15:48:45.925Z,20.30
2022-08-31T15:51:20.753Z,20.40
2022-08-31T15:54:01.025Z,20.40
2022-08-31T15:56:39.951Z,20.40
2022-08-31T15:59:08.893Z,20.50
2022-08-31T16:01:35.960Z,20.40
2022-08-31T16:04:04.336Z,20.40
2022-08-31T16:06:32.890Z,20.50
2022-08-31T16:09:00.493Z,20.50
2022-08-31T16:11:28.679Z,21.50
2022-08-31T16:13:59.881Z,20.60
2022-08-31T16:16:29.859Z,20.70
2022-08-31T16:18:58.738Z,22.00
2022-08-31T16:21:26.400Z,20.90
2022-08-31T16:23:59.666Z,20.90
2022-08-31T16:26:30.979Z,21.00
2022-08-31T16:28:58.352Z,21.00
2022-08-31T16:31:26.332Z,22.30
2022-08-31T16:33:56.031Z,21.00
2022-08-31T16:36:24.035Z,21.10
2022-08-31T16:38:54.660Z,21.00
2022-08-31T16:41:31.883Z,20.80
2022-08-31T16:44:18.805Z,20.90
2022-08-31T16:46:46.137Z,20.70
2022-08-31T16:49:31.809Z,20.70
2022-08-31T16:52:00.786Z,20.50
2022-08-31T16:54:28.816Z,20.30
2022-08-31T16:56:57.807Z,20.20
2022-08-31T16:59:26.021Z,20.20
2022-08-31T17:01:53.191Z,20.10
2022-08-31T17:04:41.104Z,20.00
2022-08-31T17:07:10.794Z,20.00
2022-08-31T17:09:38.268Z,20.20
2022-08-31T17:12:12.186Z,19.90
2022-08-31T17:14:47.190Z,19.80
2022-08-31T17:17:15.890Z,19.70
2022-08-31T17:19:44.336Z,20.50
2022-08-31T17:22:16.985Z,19.60
2022-08-31T17:24:46.571Z,20.30
2022-08-31T17:27:14.652Z,20.10
2022-08-31T17:29:48.209Z,20.60
2022-08-31T17:32:16.517Z,19.30
2022-08-31T17:34:43.470Z,19.30
2022-08-31T17:37:16.820Z,20.40
2022-08-31T17:39:44.259Z,19.00
2022-08-31T17:42:15.280Z,18.90
2022-08-31T17:44:44.970Z,18.80
2022-08-31T17:47:11.862Z,18.90
2022-08-31T17:49:43.219Z,19.00
2022-08-31T17:52:13.942Z,18.60
2022-08-31T17:54:43.301Z,19.10
2022-08-31T17:57:12.402Z,18.30
2022-08-31T17:59:41.251Z,18.30
2022-08-31T18:02:10.201Z,18.20
2022-08-31T18:04:37.499Z,18.60
2022-08-31T18:07:04.500Z,20.70
2022-08-31T18:09:32.956Z,18.00
2022-08-31T18:12:00.778Z,17.90
2022-08-31T18:14:30.162Z,17.90
2022-08-31T18:16:58.275Z,17.80
2022-08-31T18:19:27.595Z,17.70
2022-08-31T18:21:58.117Z,17.80
2022-08-31T18:24:25.493Z,20.10
2022-08-31T18:26:52.436Z,17.40
2022-08-31T18:29:24.366Z,18.10
2022-08-31T18:31:54.069Z,17.40
2022-08-31T18:34:23.111Z,17.30
2022-08-31T18:36:53.495Z,17.30
2022-08-31T18:39:47.823Z,18.80
2022-08-31T18:42:28.382Z,17.20
2022-08-31T18:45:13.858Z,17.10
2022-08-31T18:47:40.889Z,18.10
2022-08-31T18:50:09.270Z,18.00
2022-08-31T18:52:39.486Z,17.00
2022-08-31T18:55:06.739Z,18.10
2022-08-31T18:57:33.632Z,16.90
2022-08-31T19:00:02.800Z,17.00
2022-08-31T19:02:31.324Z,17.20
2022-08-31T19:04:59.340Z,16.80
2022-08-31T19:07:26.190Z,17.00
2022-08-31T19:09:53.186Z,16.70
2022-08-31T19:12:20.030Z,16.60
2022-08-31T19:14:54.014Z,17.50
2022-08-31T19:17:22.480Z,16.70
2022-08-31T19:19:49.967Z,16.50
2022-08-31T19:22:17.102Z,16.50
2022-08-31T19:24:44.229Z,16.50
2022-08-31T19:27:22.648Z,16.40
2022-08-31T19:51:20.971Z,16.30
2022-08-31T19:53:49.767Z,16.20
2022-08-31T19:56:18.459Z,16.20
2022-08-31T19:58:47.949Z,16.10
2022-08-31T20:07:37.444Z,17.20
2022-08-31T20:19:55.403Z,14.10
2022-08-31T20:22:23.633Z,15.80
2022-08-31T20:24:53.014Z,15.80
2022-08-31T20:27:20.198Z,15.70
2022-08-31T20:29:47.113Z,15.70
2022-08-31T20:32:13.887Z,15.80
2022-08-31T20:34:40.618Z,15.80
2022-08-31T20:37:07.586Z,16.20
2022-08-31T20:39:35.567Z,16.50
2022-08-31T20:42:04.196Z,17.40
2022-08-31T20:44:35.028Z,15.70
2022-08-31T20:47:22.668Z,15.60
2022-08-31T20:49:53.800Z,16.30
2022-08-31T20:52:21.350Z,15.50
2022-08-31T20:54:50.663Z,15.60
2022-08-31T20:57:18.214Z,15.60
2022-08-31T20:59:45.270Z,15.50
2022-08-31T21:02:12.426Z,16.30
2022-08-31T21:04:41.007Z,15.50
2022-08-31T21:07:08.882Z,15.60
2022-08-31T21:09:35.710Z,17.00
2022-08-31T21:12:07.248Z,15.40
2022-08-31T21:14:35.680Z,15.40
2022-08-31T21:17:06.029Z,17.30
2022-08-31T21:19:36.277Z,15.40
2022-08-31T21:22:05.352Z,16.90
2022-08-31T21:24:36.259Z,15.60
2022-08-31T21:27:03.213Z,15.60
2022-08-31T21:29:30.842Z,15.60
2022-08-31T21:32:03.408Z,15.50
2022-08-31T21:34:30.686Z,15.60
2022-08-31T21:36:57.423Z,15.70
2022-08-31T21:39:24.911Z,15.60
2022-08-31T21:41:51.922Z,15.70
2022-08-31T21:44:21.000Z,16.50
2022-08-31T21:46:50.914Z,15.50
2022-08-31T21:49:18.702Z,15.20
2022-08-31T21:51:49.707Z,15.20
2022-08-31T21:54:19.123Z,15.10
2022-08-31T21:56:46.974Z,15.00
2022-08-31T21:59:14.783Z,15.10
2022-08-31T22:01:42.152Z,16.00
2022-08-31T22:04:10.035Z,15.00
2022-08-31T22:06:37.622Z,15.00
2022-08-31T22:09:09.053Z,14.90
2022-08-31T22:11:37.304Z,14.80
2022-08-31T22:14:05.104Z,15.40
2022-08-31T22:16:33.984Z,15.00
2022-08-31T22:19:02.590Z,14.80
2022-08-31T22:21:32.051Z,15.40
2022-08-31T22:24:00.406Z,14.50
2022-08-31T22:26:28.731Z,14.50
2022-08-31T22:28:55.511Z,14.40
2022-08-31T22:31:22.766Z,14.30
2022-08-31T22:33:49.711Z,14.20
2022-08-31T22:36:19.631Z,15.00
2022-08-31T22:39:07.274Z,14.20
2022-08-31T22:41:34.632Z,14.10
2022-08-31T22:44:01.580Z,14.20
2022-08-31T22:46:28.584Z,14.20
2022-08-31T22:48:55.447Z,14.10
2022-08-31T22:51:22.716Z,14.10
2022-08-31T22:53:51.663Z,14.10
2022-08-31T22:56:27.137Z,14.00
2022-08-31T22:58:55.231Z,14.00
2022-08-31T23:01:26.793Z,13.90
2022-08-31T23:03:54.379Z,13.80
2022-08-31T23:06:23.316Z,13.80
2022-08-31T23:08:51.105Z,13.80
2022-08-31T23:11:19.275Z,13.80
2022-08-31T23:13:53.916Z,14.40
2022-08-31T23:16:24.942Z,13.80
2022-08-31T23:18:53.013Z,13.80
2022-08-31T23:21:19.879Z,13.80
2022-08-31T23:23:46.707Z,13.90
2022-08-31T23:26:13.743Z,13.90
2022-08-31T23:28:40.596Z,13.80
2022-08-31T23:31:10.925Z,13.70
2022-08-31T23:33:37.963Z,13.60
2022-08-31T23:36:05.239Z,13.60
2022-08-31T23:38:32.979Z,13.50
2022-08-31T23:41:00.539Z,13.60
2022-08-31T23:43:27.581Z,13.60
2022-08-31T23:45:59.207Z,13.60
2022-08-31T23:48:28.143Z,13.60
2022-08-31T23:50:55.493Z,15.10
2022-08-31T23:53:23.255Z,14.60
2022-08-31T23:55:49.937Z,13.60
2022-08-31T23:58:17.534Z,13.70
